Time;durP1;ratioP1;P1;durP2;ratioP2;P2;SDS_P1;SDS_P2;PMS_P1;PMS_P2;Temp;Humidity;BMP_temperature;BMP_pressure;BME280_temperature;BME280_humidity;BME280_pressure;Samples;Min_cycle;Max_cycle;Signal;HPM_P1;HPM_P2
2022/06/03 00:02:30;;;;;;;2.47;1.80;;;21.00;58.60;;;;;;5076213;28;20198;-70
2022/06/03 00:05:36;;;;;;;1.95;1.63;;;21.00;58.60;;;;;;5075960;28;20266;-70
2022/06/03 00:08:55;;;;;;;2.72;2.08;;;21.00;58.60;;;;;;5090709;28;20221;-70
2022/06/03 00:11:43;;;;;;;1.65;1.55;;;21.00;58.60;;;;;;5076185;28;20689;-69
2022/06/03 00:14:27;;;;;;;2.47;2.25;;;21.00;58.70;;;;;;5075480;28;20192;-70
2022/06/03 00:17:44;;;;;;;2.35;2.15;;;21.00;58.70;;;;;;5075649;28;20231;-70
2022/06/03 00:20:39;;;;;;;2.17;1.98;;;21.00;58.70;;;;;;5075559;28;20184;-70
2022/06/03 00:23:42;;;;;;;2.28;2.08;;;21.00;58.60;;;;;;5092515;28;20180;-70
2022/06/03 00:26:37;;;;;;;2.17;2.08;;;21.00;58.60;;;;;;5092544;28;20173;-68
2022/06/03 00:29:37;;;;;;;2.30;2.20;;;21.00;58.70;;;;;;5075934;28;20193;-67
2022/06/03 00:32:56;;;;;;;2.17;2.08;;;21.00;58.70;;;;;;5093230;28;20181;-67
2022/06/03 00:35:52;;;;;;;1.85;1.75;;;21.00;58.60;;;;;;5075902;28;20288;-69
2022/06/03 00:38:52;;;;;;;2.70;2.50;;;21.00;58.70;;;;;;5075480;28;20232;-67
2022/06/03 00:41:56;;;;;;;2.10;2.00;;;21.00;58.70;;;;;;5071879;28;20178;-68
2022/06/03 00:44:56;;;;;;;2.20;2.00;;;21.00;58.70;;;;;;5025275;28;20239;-68
2022/06/03 00:47:45;;;;;;;2.40;2.20;;;21.00;58.70;;;;;;5055294;28;20209;-68
2022/06/03 00:50:51;;;;;;;2.60;2.40;;;21.00;58.70;;;;;;5072261;28;20238;-68
2022/06/03 00:53:50;;;;;;;1.88;1.65;;;21.00;58.60;;;;;;5056053;28;20624;-68
2022/06/03 00:56:41;;;;;;;1.90;1.80;;;21.00;58.70;;;;;;5055446;28;20252;-66
2022/06/03 00:59:38;;;;;;;2.50;2.30;;;21.00;58.70;;;;;;5066928;28;20179;-68
2022/06/03 01:02:28;;;;;;;2.30;2.20;;;21.00;58.70;;;;;;5096282;28;20184;-68
2022/06/03 01:05:46;;;;;;;2.28;2.08;;;21.00;58.70;;;;;;5112616;28;20187;-68
2022/06/03 01:08:20;;;;;;;2.25;1.85;;;21.00;58.70;;;;;;5075839;28;20291;-69
2022/06/03 01:11:23;;;;;;;2.60;2.40;;;21.00;58.70;;;;;;5112715;28;20229;-68
2022/06/03 01:14:23;;;;;;;2.75;2.55;;;21.00;58.80;;;;;;5095472;28;20172;-68
2022/06/03 01:17:22;;;;;;;2.20;2.10;;;20.90;58.70;;;;;;5095010;28;20208;-68
2022/06/03 01:20:12;;;;;;;2.10;1.88;;;21.00;58.70;;;;;;5112278;28;20244;-68
2022/06/03 01:23:12;;;;;;;2.78;2.58;;;21.00;58.70;;;;;;5112285;28;20176;-68
2022/06/03 01:26:15;;;;;;;2.13;1.98;;;21.00;58.80;;;;;;5095434;28;20262;-68
2022/06/03 01:28:47;;;;;;;2.58;1.90;;;20.90;58.60;;;;;;5112275;28;20212;-68
2022/06/03 01:31:51;;;;;;;2.45;2.05;;;21.00;58.70;;;;;;5112121;28;20253;-69
2022/06/03 01:35:04;;;;;;;2.67;2.47;;;21.00;58.70;;;;;;5110593;28;20180;-68
2022/06/03 01:37:43;;;;;;;2.22;2.13;;;21.00;58.80;;;;;;5070091;28;20308;-68
2022/06/03 01:40:29;;;;;;;1.77;1.67;;;21.00;58.70;;;;;;5104961;28;20223;-68
2022/06/03 01:43:32;;;;;;;2.08;1.90;;;21.00;58.70;;;;;;5112103;28;20550;-68
2022/06/03 01:46:31;;;;;;;2.65;2.45;;;20.90;58.70;;;;;;5095226;28;20184;-68
2022/06/03 01:49:16;;;;;;;2.58;2.38;;;21.00;58.70;;;;;;5095099;28;20216;-68
2022/06/03 01:52:28;;;;;;;2.22;2.08;;;21.00;58.80;;;;;;5094879;28;20216;-68
2022/06/03 01:55:17;;;;;;;1.95;1.85;;;21.00;58.80;;;;;;5111412;28;20183;-68
2022/06/03 01:58:38;;;;;;;2.78;2.50;;;21.00;58.70;;;;;;5094391;28;20203;-68
2022/06/03 02:01:34;;;;;;;2.13;2.00;;;21.00;58.80;;;;;;5094628;28;20199;-68
2022/06/03 02:04:54;;;;;;;2.35;2.15;;;21.00;58.70;;;;;;5094689;28;20215;-68
2022/06/03 02:08:15;;;;;;;2.85;2.63;;;21.00;58.70;;;;;;5091525;28;20208;-68
2022/06/03 02:11:17;;;;;;;2.10;2.00;;;21.00;58.80;;;;;;5094810;28;20195;-68
2022/06/03 02:13:46;;;;;;;2.90;2.60;;;20.90;58.70;;;;;;5112066;28;20187;-68
2022/06/03 02:16:27;;;;;;;2.20;2.00;;;20.90;58.70;;;;;;5094122;28;20662;-68
2022/06/03 02:19:19;;;;;;;2.55;2.35;;;20.90;58.70;;;;;;5094804;28;20270;-68
2022/06/03 02:22:20;;;;;;;2.30;2.10;;;20.90;58.70;;;;;;5083897;28;20196;-68
2022/06/03 02:25:18;;;;;;;2.22;2.08;;;20.90;58.70;;;;;;5094109;28;20195;-68
2022/06/03 02:28:21;;;;;;;2.45;2.25;;;20.90;58.70;;;;;;5074214;28;20306;-69
2022/06/03 02:31:23;;;;;;;2.30;2.20;;;20.90;58.70;;;;;;5127988;28;20208;-68
2022/06/03 02:34:39;;;;;;;2.53;2.08;;;20.90;58.70;;;;;;5059908;28;20304;-68
2022/06/03 02:37:42;;;;;;;2.13;2.03;;;20.90;58.70;;;;;;5084137;28;20751;-68
2022/06/03 02:40:19;;;;;;;2.72;2.53;;;20.90;58.70;;;;;;5078098;28;20181;-69
2022/06/03 02:43:31;;;;;;;2.15;2.03;;;20.90;58.70;;;;;;5070501;28;20213;-68
2022/06/03 02:46:41;;;;;;;2.05;1.90;;;20.90;58.70;;;;;;5077802;28;20169;-68
2022/06/03 02:49:53;;;;;;;2.85;2.63;;;20.90;58.70;;;;;;5072180;28;20659;-68
2022/06/03 02:53:08;;;;;;;2.33;2.00;;;20.90;58.80;;;;;;5057816;28;20185;-68
2022/06/03 02:55:58;;;;;;;2.15;1.95;;;20.90;58.70;;;;;;5057575;28;20177;-67
2022/06/03 02:59:08;;;;;;;2.70;2.50;;;20.90;58.70;;;;;;5058252;28;20210;-68
2022/06/03 03:02:21;;;;;;;1.98;1.85;;;20.90;58.70;;;;;;5059107;28;20247;-69
2022/06/03 03:05:08;;;;;;;2.30;2.10;;;20.90;58.70;;;;;;5058680;28;20276;-68
2022/06/03 03:07:58;;;;;;;2.72;2.53;;;20.90;58.70;;;;;;5055057;28;20216;-69
2022/06/03 03:10:54;;;;;;;3.10;2.83;;;20.90;58.70;;;;;;5057272;28;20217;-68
2022/06/03 03:14:02;;;;;;;2.03;1.83;;;20.90;58.70;;;;;;5056670;28;20185;-69
2022/06/03 03:17:02;;;;;;;2.20;2.10;;;20.90;58.70;;;;;;5058278;28;20310;-68
2022/06/03 03:20:04;;;;;;;3.65;3.10;;;20.90;58.70;;;;;;5090454;28;20189;-68
2022/06/03 03:23:11;;;;;;;2.25;2.05;;;20.90;58.70;;;;;;5057276;28;20185;-68
2022/06/03 03:26:14;;;;;;;2.28;2.15;;;20.90;58.70;;;;;;5073788;28;20185;-68
2022/06/03 03:29:44;;;;;;;2.90;2.70;;;20.90;58.70;;;;;;5056987;28;20201;-68
2022/06/03 03:32:52;;;;;;;2.13;2.03;;;20.90;58.70;;;;;;5030684;28;20232;-69
2022/06/03 03:35:51;;;;;;;2.08;1.98;;;20.90;58.70;;;;;;5056354;28;20178;-67
2022/06/03 03:39:01;;;;;;;3.05;2.75;;;20.90;58.80;;;;;;5056744;28;20202;-68
2022/06/03 03:41:42;;;;;;;2.38;2.10;;;20.90;58.70;;;;;;5026320;28;20193;-68
2022/06/03 03:44:36;;;;;;;1.88;1.77;;;20.90;58.70;;;;;;5056871;28;20583;-68
2022/06/03 03:47:51;;;;;;;2.25;2.15;;;20.90;58.70;;;;;;5073222;28;20198;-67
2022/06/03 03:51:15;;;;;;;2.97;2.78;;;20.90;58.70;;;;;;4986959;28;20228;-67
2022/06/03 03:54:04;;;;;;;1.90;1.80;;;20.90;58.80;;;;;;5045507;28;20193;-69
2022/06/03 03:56:58;;;;;;;2.83;2.60;;;20.90;58.80;;;;;;5015737;28;20209;-69
2022/06/03 03:59:54;;;;;;;2.88;2.67;;;20.90;58.80;;;;;;5056548;28;20182;-68
2022/06/03 04:03:15;;;;;;;2.22;2.13;;;20.90;58.80;;;;;;5056622;28;20177;-68
2022/06/03 04:06:36;;;;;;;2.33;2.17;;;20.90;58.80;;;;;;5056477;28;20246;-68
2022/06/03 04:09:35;;;;;;;2.55;2.35;;;20.90;58.70;;;;;;5056169;28;20202;-68
2022/06/03 04:12:54;;;;;;;2.00;1.90;;;20.90;58.80;;;;;;5056008;28;20158;-65
2022/06/03 04:15:54;;;;;;;2.70;2.50;;;20.90;58.80;;;;;;5056022;28;20212;-68
2022/06/03 04:18:42;;;;;;;2.60;2.40;;;20.90;58.80;;;;;;5056730;28;20288;-68
2022/06/03 04:21:55;;;;;;;1.90;1.80;;;20.90;58.80;;;;;;5073278;28;20626;-68
2022/06/03 04:25:04;;;;;;;2.28;2.17;;;20.80;58.70;;;;;;5038270;28;20200;-68
2022/06/03 04:27:49;;;;;;;2.55;2.38;;;20.90;58.80;;;;;;5072854;28;20597;-68
2022/06/03 04:30:45;;;;;;;2.38;2.20;;;20.90;58.80;;;;;;5089953;28;20222;-68
2022/06/03 04:33:58;;;;;;;2.55;2.40;;;20.90;58.80;;;;;;5056124;28;20207;-68
2022/06/03 04:36:59;;;;;;;2.90;2.70;;;20.90;58.80;;;;;;5071898;28;20181;-68
2022/06/03 04:40:17;;;;;;;2.38;2.28;;;20.90;58.90;;;;;;5055967;28;20181;-68
2022/06/03 04:43:11;;;;;;;2.05;1.95;;;20.90;58.80;;;;;;5055878;28;20186;-67
2022/06/03 04:46:35;;;;;;;2.90;2.70;;;20.90;58.80;;;;;;5072059;28;20254;-68
2022/06/03 04:49:23;;;;;;;2.05;1.95;;;20.90;58.80;;;;;;5045393;28;20304;-66
2022/06/03 04:52:31;;;;;;;1.90;1.80;;;20.90;58.80;;;;;;5072564;28;20189;-68
2022/06/03 04:55:34;;;;;;;3.22;3.00;;;20.90;58.80;;;;;;5072889;28;20182;-68
2022/06/03 04:58:47;;;;;;;3.28;3.05;;;20.90;58.80;;;;;;5072717;28;20212;-68
2022/06/03 05:01:51;;;;;;;2.03;1.92;;;20.90;58.80;;;;;;5055494;28;20197;-68
2022/06/03 05:04:53;;;;;;;3.17;2.97;;;20.90;58.80;;;;;;5071698;28;20181;-67
2022/06/03 05:08:25;;;;;;;2.80;2.60;;;20.90;58.90;;;;;;5071999;28;20208;-68
2022/06/03 05:11:40;;;;;;;1.90;1.80;;;20.90;58.80;;;;;;5035812;28;20203;-68
2022/06/03 05:14:43;;;;;;;3.20;3.00;;;20.90;58.90;;;;;;5071753;28;20178;-68
2022/06/03 05:17:28;;;;;;;2.42;2.22;;;20.90;58.90;;;;;;5071435;28;20201;-67
2022/06/03 05:20:03;;;;;;;2.13;2.00;;;20.90;58.90;;;;;;5055128;28;20178;-68
2022/06/03 05:22:41;;;;;;;2.17;2.05;;;20.90;58.90;;;;;;5071828;28;20189;-68
2022/06/03 05:25:31;;;;;;;2.67;2.47;;;20.90;58.90;;;;;;5071359;28;20182;-70
2022/06/03 05:28:18;;;;;;;3.17;2.97;;;20.90;58.90;;;;;;5071405;28;20229;-68
2022/06/03 05:31:40;;;;;;;2.72;2.53;;;20.90;59.00;;;;;;5071442;28;20764;-68
2022/06/03 05:34:37;;;;;;;2.40;2.30;;;20.90;59.00;;;;;;5054923;28;20181;-68
2022/06/03 05:37:49;;;;;;;2.90;2.70;;;20.90;59.00;;;;;;5088202;28;20209;-67
2022/06/03 05:40:54;;;;;;;2.75;2.55;;;20.90;59.10;;;;;;5054847;28;20279;-68
2022/06/03 05:43:44;;;;;;;1.90;1.80;;;20.90;59.00;;;;;;5054515;28;20192;-68
2022/06/03 05:46:27;;;;;;;2.13;1.95;;;20.90;59.10;;;;;;5054623;28;20193;-69
2022/06/03 05:49:11;;;;;;;2.60;2.50;;;20.90;59.10;;;;;;5054480;28;20630;-69
2022/06/03 05:52:08;;;;;;;2.50;2.38;;;20.90;59.10;;;;;;5054897;28;20180;-68
2022/06/03 05:55:02;;;;;;;2.10;2.00;;;20.90;59.10;;;;;;5054693;28;20181;-68
2022/06/03 05:57:39;;;;;;;2.88;2.00;;;21.00;59.10;;;;;;5070852;28;20212;-71
2022/06/03 06:00:37;;;;;;;2.20;2.10;;;21.00;59.50;;;;;;5054448;28;20189;-70
2022/06/03 06:03:20;;;;;;;2.72;2.50;;;21.00;59.40;;;;;;5049582;28;20194;-70
2022/06/03 06:06:50;;;;;;;2.80;2.60;;;20.90;59.30;;;;;;5070971;28;20174;-70
2022/06/03 06:09:54;;;;;;;2.13;2.00;;;20.90;59.30;;;;;;5029778;28;20214;-70
2022/06/03 06:12:45;;;;;;;2.15;2.00;;;21.00;59.40;;;;;;4999300;28;20187;-70
2022/06/03 06:15:52;;;;;;;2.08;1.98;;;21.00;59.40;;;;;;5053424;28;20641;-71
2022/06/03 06:18:46;;;;;;;2.20;2.10;;;21.00;59.60;;;;;;5058313;28;20284;-71
2022/06/03 06:21:31;;;;;;;2.17;2.08;;;21.00;59.70;;;;;;5075265;28;20188;-71
2022/06/03 06:24:13;;;;;;;1.80;1.70;;;21.00;59.80;;;;;;5092511;28;20261;-71
2022/06/03 06:26:45;;;;;;;2.55;2.13;;;21.00;59.80;;;;;;5075078;28;20240;-71
2022/06/03 06:29:41;;;;;;;2.15;2.05;;;21.00;59.90;;;;;;5074673;28;20209;-72
2022/06/03 06:32:56;;;;;;;2.10;2.00;;;21.00;59.90;;;;;;5057999;28;20174;-70
2022/06/03 06:35:25;;;;;;;2.17;2.00;;;21.00;60.00;;;;;;5058109;28;20185;-70
2022/06/03 06:38:21;;;;;;;2.00;1.90;;;21.00;60.00;;;;;;5074992;28;20202;-71
2022/06/03 06:41:24;;;;;;;2.10;2.00;;;21.00;59.90;;;;;;5064697;28;20177;-69
2022/06/03 06:44:35;;;;;;;2.17;2.08;;;21.00;60.00;;;;;;5078057;28;20652;-71
2022/06/03 06:47:30;;;;;;;2.00;1.90;;;21.00;60.20;;;;;;5077631;28;20337;-70
2022/06/03 06:50:38;;;;;;;2.85;2.65;;;21.00;59.90;;;;;;5077473;28;20710;-71
2022/06/03 06:53:23;;;;;;;2.80;2.60;;;21.00;59.90;;;;;;5025566;28;20211;-70
2022/06/03 06:56:29;;;;;;;2.05;1.85;;;21.00;60.40;;;;;;5077603;28;20305;-70
2022/06/03 06:58:59;;;;;;;2.63;2.53;;;21.00;60.20;;;;;;5081828;28;20217;-71
2022/06/03 07:01:57;;;;;;;2.35;2.20;;;21.00;60.30;;;;;;5097987;28;20196;-71
2022/06/03 07:04:37;;;;;;;2.40;2.30;;;21.00;60.30;;;;;;5082570;28;20654;-71
2022/06/03 07:07:20;;;;;;;2.30;2.20;;;21.00;60.20;;;;;;5114509;28;20239;-70
2022/06/03 07:10:20;;;;;;;2.38;2.28;;;21.10;60.30;;;;;;5114649;28;20203;-70
2022/06/03 07:13:18;;;;;;;2.20;2.00;;;21.10;60.50;;;;;;5073323;28;20188;-68
2022/06/03 07:16:15;;;;;;;2.20;2.10;;;21.10;60.20;;;;;;5097730;28;20172;-70
2022/06/03 07:21:59;;;;;;;2.30;2.10;;;21.00;60.30;;;;;;5115516;28;20188;-68
2022/06/03 07:24:58;;;;;;;2.45;2.25;;;21.10;60.60;;;;;;5097800;28;20212;-68
2022/06/03 07:27:46;;;;;;;2.10;2.00;;;21.10;60.50;;;;;;5094352;28;20212;-68
2022/06/03 07:30:47;;;;;;;2.70;2.50;;;21.00;60.40;;;;;;5115219;28;20222;-69
2022/06/03 07:33:35;;;;;;;2.60;2.20;;;21.10;60.60;;;;;;5099150;28;20183;-69
2022/06/03 07:36:21;;;;;;;2.03;1.92;;;21.10;60.60;;;;;;5112735;28;20176;-67
2022/06/03 07:38:59;;;;;;;2.40;2.20;;;21.10;60.60;;;;;;5113559;28;20180;-66
2022/06/03 07:41:41;;;;;;;2.10;2.00;;;21.10;60.50;;;;;;5097220;28;20177;-68
2022/06/03 07:44:28;;;;;;;2.15;2.05;;;21.10;60.50;;;;;;5097067;28;20208;-68
2022/06/03 07:47:01;;;;;;;2.60;2.40;;;21.10;60.60;;;;;;5096750;28;20200;-68
2022/06/03 07:49:34;;;;;;;2.22;2.10;;;21.20;60.70;;;;;;5096997;28;20208;-68
2022/06/03 07:52:26;;;;;;;1.90;1.73;;;21.20;60.60;;;;;;5113865;28;20270;-69
2022/06/03 07:54:56;;;;;;;2.20;2.05;;;21.20;60.60;;;;;;5096872;28;20180;-69
2022/06/03 07:57:29;;;;;;;2.28;2.13;;;21.10;60.50;;;;;;5096674;28;20582;-69
2022/06/03 07:59:59;;;;;;;2.58;2.38;;;21.10;60.30;;;;;;5096895;28;20184;-68
2022/06/03 08:02:25;;;;;;;2.28;2.17;;;21.20;60.60;;;;;;5096630;28;20271;-68
2022/06/03 08:05:24;;;;;;;2.22;2.10;;;21.20;60.60;;;;;;5096545;28;20184;-68
2022/06/03 08:10:56;;;;;;;2.70;2.20;;;21.20;60.50;;;;;;5073310;28;20209;-68
2022/06/03 08:13:24;;;;;;;2.00;1.90;;;21.20;60.50;;;;;;5062213;28;20192;-69
2022/06/03 08:16:00;;;;;;;2.25;2.08;;;21.20;60.40;;;;;;5093716;28;20173;-67
2022/06/03 08:18:34;;;;;;;1.92;1.83;;;21.20;60.20;;;;;;5076053;28;20204;-69
2022/06/03 08:21:09;;;;;;;2.22;1.80;;;21.20;60.10;;;;;;5076414;28;20181;-68
2022/06/03 08:23:37;;;;;;;2.42;2.20;;;21.20;60.20;;;;;;5072535;28;20204;-68
2022/06/03 08:26:19;;;;;;;2.55;1.90;;;21.30;60.50;;;;;;5055734;28;20192;-67
2022/06/03 08:28:52;;;;;;;2.53;2.33;;;21.30;60.50;;;;;;5089152;28;20185;-69
2022/06/03 08:31:23;;;;;;;2.70;2.30;;;21.20;60.30;;;;;;5055727;28;20264;-68
2022/06/03 08:34:00;;;;;;;1.98;1.85;;;21.30;60.30;;;;;;5055142;28;20177;-69
2022/06/03 08:36:33;;;;;;;3.17;2.05;;;21.30;60.40;;;;;;5054793;28;20173;-68
2022/06/03 08:39:17;;;;;;;1.98;1.88;;;21.30;60.40;;;;;;5088724;28;20249;-69
2022/06/03 08:41:46;;;;;;;2.03;1.92;;;21.30;60.50;;;;;;5055933;28;20194;-68
2022/06/03 08:44:44;;;;;;;2.08;1.98;;;21.30;60.40;;;;;;5088831;28;20181;-69
2022/06/03 08:47:21;;;;;;;3.25;2.08;;;21.40;60.50;;;;;;5055297;28;20205;-67
2022/06/03 08:50:00;;;;;;;2.00;1.90;;;21.30;61.10;;;;;;5072280;28;20210;-67
2022/06/03 08:52:40;;;;;;;2.30;2.10;;;21.30;60.60;;;;;;5072276;28;20384;-69
2022/06/03 08:55:24;;;;;;;2.10;2.00;;;21.30;60.80;;;;;;5071895;28;20189;-70
2022/06/03 08:57:56;;;;;;;2.05;1.95;;;21.30;60.80;;;;;;5068978;28;20201;-68
2022/06/03 09:00:41;;;;;;;2.42;2.22;;;21.30;60.90;;;;;;5090891;28;20328;-68
2022/06/03 09:03:15;;;;;;;2.40;2.20;;;21.30;60.80;;;;;;5062569;28;20285;-69
2022/06/03 09:06:07;;;;;;;2.38;2.10;;;21.40;60.80;;;;;;5089582;28;20191;-69
2022/06/03 09:08:58;;;;;;;2.20;2.10;;;21.40;60.70;;;;;;5068956;28;20208;-68
2022/06/03 09:11:37;;;;;;;2.40;2.20;;;21.30;60.70;;;;;;5075463;28;20184;-68
2022/06/03 09:14:09;;;;;;;2.20;2.00;;;21.40;61.40;;;;;;5090759;28;20262;-68
2022/06/03 09:16:38;;;;;;;2.38;2.20;;;21.40;61.00;;;;;;5096922;28;20190;-68
2022/06/03 09:19:12;;;;;;;2.28;2.17;;;21.40;60.90;;;;;;5069902;28;20266;-68
2022/06/03 09:21:41;;;;;;;2.30;2.10;;;21.40;61.10;;;;;;5055190;28;20283;-68
2022/06/03 09:24:15;;;;;;;2.38;2.03;;;21.40;61.00;;;;;;5055868;28;20186;-68
2022/06/03 09:26:50;;;;;;;2.53;2.33;;;21.40;61.30;;;;;;5071936;28;20209;-68
2022/06/03 09:29:18;;;;;;;2.05;1.95;;;21.40;61.20;;;;;;5083907;28;20250;-67
2022/06/03 09:31:51;;;;;;;2.10;2.00;;;21.40;61.30;;;;;;5074802;28;20216;-68
2022/06/03 09:34:22;;;;;;;2.70;2.50;;;21.40;61.20;;;;;;5073842;28;20177;-68
2022/06/03 09:36:49;;;;;;;2.63;2.28;;;21.40;61.00;;;;;;5087309;28;20751;-69
2022/06/03 09:39:19;;;;;;;2.45;2.25;;;21.40;61.20;;;;;;5090773;28;20224;-68
2022/06/03 09:41:53;;;;;;;2.45;2.25;;;21.40;61.20;;;;;;5074801;28;20192;-69
2022/06/03 09:44:24;;;;;;;3.30;2.50;;;21.40;61.10;;;;;;5074732;28;20176;-68
2022/06/03 09:47:05;;;;;;;2.25;2.10;;;21.40;61.30;;;;;;5090279;28;20228;-68
2022/06/03 09:49:32;;;;;;;2.35;2.15;;;21.40;61.90;;;;;;5074830;28;20208;-68
2022/06/03 09:52:01;;;;;;;2.00;1.90;;;21.40;61.60;;;;;;5074174;28;20212;-68
2022/06/03 09:54:40;;;;;;;2.55;2.35;;;21.50;62.20;;;;;;5074935;28;20181;-68
2022/06/03 09:57:28;;;;;;;2.08;1.98;;;21.40;61.30;;;;;;5074508;28;20217;-69
2022/06/03 10:00:12;;;;;;;2.55;2.35;;;21.50;61.90;;;;;;5074279;28;20564;-69
2022/06/03 10:02:42;;;;;;;2.58;2.30;;;21.50;61.60;;;;;;5091560;28;20176;-69
2022/06/03 10:05:12;;;;;;;2.30;2.10;;;21.50;61.50;;;;;;5074392;28;20206;-68
2022/06/03 10:07:38;;;;;;;2.28;2.17;;;21.50;61.80;;;;;;5073563;28;20197;-69
2022/06/03 10:12:53;;;;;;;2.83;2.35;;;21.50;61.40;;;;;;5090671;28;20185;-68
2022/06/03 10:15:53;;;;;;;3.28;2.60;;;21.50;61.60;;;;;;5073827;28;20230;-69
2022/06/03 10:18:44;;;;;;;2.45;2.25;;;21.50;61.70;;;;;;5074147;28;20205;-69
2022/06/03 10:21:12;;;;;;;3.05;2.30;;;21.50;62.40;;;;;;5074123;28;20181;-69
2022/06/03 10:23:47;;;;;;;2.60;2.47;;;21.50;61.90;;;;;;5074087;28;20185;-69
2022/06/03 10:26:49;;;;;;;2.65;2.53;;;21.50;61.80;;;;;;5074383;28;20187;-69
2022/06/03 10:29:19;;;;;;;3.08;2.55;;;21.50;61.70;;;;;;5074152;28;20216;-69
2022/06/03 10:32:02;;;;;;;2.72;2.53;;;21.50;61.80;;;;;;5091363;28;20181;-69
2022/06/03 10:34:40;;;;;;;2.40;2.20;;;21.50;61.70;;;;;;5075281;28;20173;-68
2022/06/03 10:37:15;;;;;;;2.45;2.25;;;21.50;62.10;;;;;;5074719;28;20204;-69
2022/06/03 10:39:43;;;;;;;2.70;2.50;;;21.50;62.50;;;;;;5075587;28;20389;-69
2022/06/03 10:42:16;;;;;;;2.60;2.40;;;21.50;62.00;;;;;;5075470;28;20723;-69
2022/06/03 10:44:49;;;;;;;2.75;2.55;;;21.50;62.80;;;;;;5075050;28;20185;-69
2022/06/03 10:47:19;;;;;;;4.57;2.80;;;21.50;62.40;;;;;;5074544;28;20216;-69
2022/06/03 10:49:56;;;;;;;2.65;2.45;;;21.50;61.90;;;;;;5074781;28;20205;-69
2022/06/03 11:01:43;;;;;;;3.33;2.33;;;21.60;62.10;;;;;;5094786;28;20231;-69
2022/06/03 11:04:26;;;;;;;4.65;2.72;;;21.50;61.90;;;;;;5075431;28;20196;-69
2022/06/03 11:06:51;;;;;;;4.43;2.38;;;21.60;62.00;;;;;;5078651;28;20239;-69
2022/06/03 11:09:19;;;;;;;3.15;2.60;;;21.60;62.20;;;;;;5078079;28;20248;-68
2022/06/03 11:11:58;;;;;;;3.95;2.33;;;21.60;62.00;;;;;;5095157;28;20188;-68
2022/06/03 11:14:39;;;;;;;2.47;2.28;;;21.60;62.20;;;;;;5078037;28;20177;-69
2022/06/03 11:17:44;;;;;;;3.28;2.95;;;21.60;62.00;;;;;;5078169;28;20586;-68
2022/06/03 11:20:39;;;;;;;2.67;2.47;;;21.60;62.20;;;;;;5090524;28;20184;-69
2022/06/03 11:23:10;;;;;;;2.88;2.35;;;21.60;62.00;;;;;;5098304;28;20245;-69
2022/06/03 11:25:46;;;;;;;3.58;2.25;;;21.60;62.10;;;;;;5086347;28;20276;-70
2022/06/03 11:28:22;;;;;;;3.45;2.90;;;21.60;61.90;;;;;;5077228;28;20210;-69
2022/06/03 11:31:13;;;;;;;3.72;2.47;;;21.70;62.30;;;;;;5077266;28;20213;-69
2022/06/03 11:33:52;;;;;;;3.28;2.80;;;21.60;62.00;;;;;;5077318;28;20264;-69
2022/06/03 11:36:30;;;;;;;4.18;2.90;;;21.60;62.00;;;;;;5075448;28;20181;-67
2022/06/03 11:39:01;;;;;;;2.50;2.30;;;21.60;61.90;;;;;;5075529;28;20192;-70
2022/06/03 11:41:39;;;;;;;2.85;2.63;;;21.60;62.00;;;;;;5075394;28;20181;-70
2022/06/03 11:44:33;;;;;;;3.05;2.67;;;21.60;62.00;;;;;;5076639;28;20179;-69
2022/06/03 11:47:19;;;;;;;3.00;2.75;;;21.70;62.10;;;;;;5062222;28;20213;-69
2022/06/03 11:49:45;;;;;;;2.70;2.22;;;21.60;62.30;;;;;;5079547;28;20247;-70
2022/06/03 11:52:12;;;;;;;4.18;2.60;;;21.60;62.10;;;;;;5077548;28;20647;-69
2022/06/03 11:54:39;;;;;;;3.47;2.50;;;21.60;62.10;;;;;;5075558;28;20188;-69
2022/06/03 11:57:07;;;;;;;3.03;2.28;;;21.60;62.00;;;;;;5077063;28;20203;-68
2022/06/03 11:59:42;;;;;;;2.60;2.40;;;21.60;62.00;;;;;;5086343;28;20256;-69
2022/06/03 12:02:39;;;;;;;2.53;2.30;;;21.60;61.90;;;;;;5085095;28;20184;-69
2022/06/03 12:05:21;;;;;;;4.72;2.40;;;21.70;62.10;;;;;;5077618;28;20177;-68
2022/06/03 12:08:23;;;;;;;4.05;2.60;;;21.60;62.00;;;;;;5075043;28;20215;-69
2022/06/03 12:11:06;;;;;;;2.85;2.65;;;21.70;62.40;;;;;;5075965;28;20222;-69
2022/06/03 12:13:33;;;;;;;2.72;2.22;;;21.70;62.10;;;;;;5076432;28;20200;-69
2022/06/03 12:16:11;;;;;;;2.38;2.25;;;21.60;62.10;;;;;;5076043;28;20193;-69
2022/06/03 12:18:39;;;;;;;2.65;2.30;;;21.60;62.20;;;;;;5076552;28;20181;-69
2022/06/03 12:21:14;;;;;;;3.13;2.25;;;21.60;62.30;;;;;;5077143;28;20181;-69
2022/06/03 12:23:43;;;;;;;3.83;2.30;;;21.70;62.60;;;;;;5077232;28;20245;-69
2022/06/03 12:26:17;;;;;;;3.63;2.60;;;21.60;62.20;;;;;;5076810;28;20185;-69
2022/06/03 12:28:49;;;;;;;2.47;2.15;;;21.60;62.20;;;;;;5076111;28;20180;-69
2022/06/03 12:31:17;;;;;;;4.38;2.60;;;21.70;62.30;;;;;;5091586;28;20189;-70
2022/06/03 12:33:57;;;;;;;2.30;2.05;;;21.60;62.40;;;;;;5091847;28;20189;-70
2022/06/03 12:36:46;;;;;;;2.42;2.25;;;21.60;62.30;;;;;;5076504;28;20180;-69
2022/06/03 12:39:18;;;;;;;3.13;2.58;;;21.60;62.30;;;;;;5076492;28;20185;-69
2022/06/03 12:41:44;;;;;;;3.42;2.53;;;21.60;62.20;;;;;;5076766;28;20189;-69
2022/06/03 12:44:47;;;;;;;3.05;2.40;;;21.70;62.20;;;;;;5093333;28;20203;-69
2022/06/03 12:47:31;;;;;;;2.60;2.40;;;21.60;62.40;;;;;;5075762;28;20353;-69
2022/06/03 12:50:30;;;;;;;2.60;2.40;;;21.60;62.50;;;;;;5075900;28;20228;-69
2022/06/03 12:53:06;;;;;;;2.65;2.45;;;21.70;62.70;;;;;;5075487;28;20181;-69
2022/06/03 12:55:36;;;;;;;3.20;2.60;;;21.70;62.70;;;;;;5072848;28;20189;-68
2022/06/03 12:58:26;;;;;;;3.72;2.70;;;21.70;62.60;;;;;;5068454;28;20203;-69
2022/06/03 13:00:57;;;;;;;2.80;2.50;;;21.70;62.60;;;;;;5065607;28;20213;-69
2022/06/03 13:03:23;;;;;;;2.60;2.40;;;21.70;62.70;;;;;;5075506;28;20212;-69
2022/06/03 13:05:55;;;;;;;3.10;2.80;;;21.60;62.60;;;;;;5075313;28;20633;-68
2022/06/03 13:08:27;;;;;;;4.35;2.58;;;21.60;62.60;;;;;;5066029;28;20282;-69
2022/06/03 13:11:30;;;;;;;4.60;2.45;;;21.60;62.60;;;;;;5055863;28;20217;-70
2022/06/03 13:13:56;;;;;;;2.72;2.25;;;21.70;62.70;;;;;;5058656;28;20709;-71
2022/06/03 13:16:35;;;;;;;2.75;2.47;;;21.70;62.70;;;;;;5091953;28;20212;-71
2022/06/03 13:19:19;;;;;;;2.42;2.10;;;21.60;62.60;;;;;;5076270;28;20188;-68
2022/06/03 13:21:57;;;;;;;3.67;2.28;;;21.70;62.70;;;;;;5075658;28;20196;-70
2022/06/03 13:24:28;;;;;;;2.20;2.08;;;21.70;62.70;;;;;;5072729;28;20232;-70
2022/06/03 13:27:29;;;;;;;3.47;2.05;;;21.70;62.70;;;;;;5071890;28;20206;-69
2022/06/03 13:30:00;;;;;;;2.05;1.95;;;21.70;62.70;;;;;;5030426;28;20221;-71
2022/06/03 13:32:34;;;;;;;2.95;2.55;;;21.70;62.70;;;;;;5076364;28;20173;-70
2022/06/03 13:35:22;;;;;;;3.47;2.22;;;21.70;62.70;;;;;;5075760;28;20229;-70
2022/06/03 13:38:16;;;;;;;2.65;2.45;;;21.70;62.90;;;;;;5074735;28;20213;-70
2022/06/03 13:42:57;;;;;;;2.85;2.35;;;21.70;63.20;;;;;;5074205;28;20267;-71
2022/06/03 13:43:29;;;;;;;2.45;2.25;;;21.70;63.20;;;;;;5080453;28;20226;-70
2022/06/03 13:46:02;;;;;;;2.42;2.17;;;21.70;63.30;;;;;;5074883;28;20177;-70
2022/06/03 13:48:59;;;;;;;3.05;2.20;;;21.70;63.40;;;;;;5072736;28;20237;-70
2022/06/03 13:51:40;;;;;;;3.20;2.33;;;21.60;63.30;;;;;;5056372;28;20192;-70
2022/06/03 13:54:32;;;;;;;2.47;2.17;;;21.60;64.10;;;;;;5055599;28;20174;-71
2022/06/03 13:57:12;;;;;;;2.55;2.35;;;21.60;63.40;;;;;;5066784;28;20197;-71
2022/06/03 13:59:42;;;;;;;2.58;2.38;;;21.70;63.70;;;;;;5053775;28;20185;-70
2022/06/03 14:02:23;;;;;;;2.67;2.45;;;21.70;63.70;;;;;;5065361;28;20660;-70
2022/06/03 14:05:09;;;;;;;2.38;2.28;;;21.70;63.70;;;;;;5091193;28;20271;-70
2022/06/03 14:08:01;;;;;;;2.47;2.28;;;21.70;63.80;;;;;;5068827;28;20212;-70
2022/06/03 14:10:43;;;;;;;2.92;2.72;;;21.70;63.80;;;;;;5090890;28;20236;-70
2022/06/03 14:13:42;;;;;;;3.28;3.03;;;21.70;64.00;;;;;;5094772;28;20164;-70
2022/06/03 14:16:29;;;;;;;2.63;2.30;;;21.70;64.00;;;;;;5094471;28;20169;-70
2022/06/03 14:19:13;;;;;;;2.95;2.60;;;21.70;64.10;;;;;;5094475;28;20173;-70
2022/06/03 14:21:46;;;;;;;3.10;2.80;;;21.70;64.30;;;;;;5085960;28;20271;-70
2022/06/03 14:24:26;;;;;;;3.83;2.53;;;21.70;64.30;;;;;;5070786;28;20266;-70
2022/06/03 14:27:25;;;;;;;3.10;2.80;;;21.70;64.20;;;;;;5070477;28;20203;-70
2022/06/03 14:30:18;;;;;;;2.80;2.60;;;21.70;64.50;;;;;;5070636;28;20602;-70
2022/06/03 14:32:53;;;;;;;4.15;2.90;;;21.70;64.40;;;;;;5072121;28;20657;-70
2022/06/03 14:35:43;;;;;;;3.15;2.85;;;21.70;64.40;;;;;;5057933;28;20690;-71
2022/06/03 14:38:36;;;;;;;2.65;2.45;;;21.70;64.40;;;;;;5057624;28;20202;-71
2022/06/03 14:41:10;;;;;;;4.43;2.75;;;21.70;64.40;;;;;;5074644;28;20182;-70
2022/06/03 14:43:40;;;;;;;3.65;3.15;;;21.70;64.60;;;;;;5066464;28;20240;-70
2022/06/03 14:46:24;;;;;;;3.20;2.90;;;21.70;64.60;;;;;;5073935;28;20216;-70
2022/06/03 14:48:59;;;;;;;3.25;2.85;;;21.70;64.70;;;;;;5073805;28;20181;-70
2022/06/03 14:51:43;;;;;;;3.67;3.10;;;21.70;64.60;;;;;;5074846;28;20188;-70
2022/06/03 14:54:34;;;;;;;3.10;2.83;;;21.70;64.60;;;;;;5057265;28;20189;-70
2022/06/03 14:57:05;;;;;;;2.63;2.38;;;21.60;64.50;;;;;;5073934;28;20233;-70